Time;durP1;ratioP1;P1;durP2;ratioP2;P2;SDS_P1;SDS_P2;PMS_P1;PMS_P2;Temp;Humidity;BMP_temperature;BMP_pressure;BME280_temperature;BME280_humidity;BME280_pressure;Samples;Min_cycle;Max_cycle;Signal;HPM_P1;HPM_P2
2021/06/10 00:02:56;;;;;;;1.80;1.10;;;23.20;52.20;;;;;;6262716;28;20017;-70
2021/06/10 00:05:56;;;;;;;1.33;0.77;;;23.20;52.20;;;;;;6262992;28;20123;-70
2021/06/10 00:08:57;;;;;;;1.17;0.82;;;23.20;52.20;;;;;;6258685;28;20033;-69
2021/06/10 00:11:57;;;;;;;1.67;0.90;;;23.10;52.10;;;;;;6263265;28;20025;-70
2021/06/10 00:14:58;;;;;;;1.17;1.00;;;23.20;52.20;;;;;;6262755;28;20045;-69
2021/06/10 00:17:59;;;;;;;1.25;1.00;;;23.10;52.10;;;;;;6262771;28;20040;-70
2021/06/10 00:21:00;;;;;;;1.05;0.80;;;23.20;52.20;;;;;;6262907;28;20032;-69
2021/06/10 00:24:01;;;;;;;1.15;0.90;;;23.20;52.20;;;;;;6262326;28;20024;-69
2021/06/10 00:27:02;;;;;;;0.82;0.75;;;23.20;52.20;;;;;;6262834;28;20063;-69
2021/06/10 00:30:05;;;;;;;0.85;0.85;;;23.20;52.20;;;;;;6261874;28;20037;-70
2021/06/10 00:33:06;;;;;;;1.00;0.82;;;23.10;52.10;;;;;;6266769;28;20021;-70
2021/06/10 00:36:06;;;;;;;1.35;0.93;;;23.20;52.20;;;;;;6266671;28;20133;-69
2021/06/10 00:39:07;;;;;;;0.95;0.82;;;23.20;52.20;;;;;;6266413;28;20424;-70
2021/06/10 00:42:09;;;;;;;1.30;0.90;;;23.20;52.20;;;;;;6266277;28;20029;-69
2021/06/10 00:45:13;;;;;;;0.65;0.65;;;23.20;52.20;;;;;;6267373;28;20036;-70
2021/06/10 00:48:14;;;;;;;1.00;0.90;;;23.20;52.20;;;;;;6267028;28;20043;-70
2021/06/10 00:51:14;;;;;;;0.68;0.68;;;23.20;52.20;;;;;;6258673;28;20032;-71
2021/06/10 00:54:15;;;;;;;0.82;0.70;;;23.20;52.20;;;;;;6241613;28;20083;-70
2021/06/10 00:57:16;;;;;;;1.02;0.70;;;23.20;52.20;;;;;;6266374;28;20257;-69
2021/06/10 01:00:17;;;;;;;0.75;0.75;;;23.20;52.20;;;;;;6263954;28;20032;-70
2021/06/10 01:03:18;;;;;;;1.00;0.88;;;23.20;52.30;;;;;;6266387;28;20442;-70
2021/06/10 01:06:57;;;;;;;1.17;0.80;;;23.20;52.20;;;;;;6266302;28;20036;-70
2021/06/10 01:10:02;;;;;;;0.80;0.80;;;23.20;52.20;;;;;;6266171;28;20036;-70
2021/06/10 01:13:17;;;;;;;0.63;0.63;;;23.20;52.30;;;;;;6266420;28;20048;-70
2021/06/10 01:16:21;;;;;;;1.30;0.87;;;23.20;52.20;;;;;;6266108;28;20483;-70
2021/06/10 01:19:40;;;;;;;1.80;0.90;;;23.20;52.20;;;;;;6266639;28;20029;-70
2021/06/10 01:22:55;;;;;;;1.02;0.90;;;23.20;52.20;;;;;;6266164;28;20028;-70
2021/06/10 01:26:03;;;;;;;1.00;0.80;;;23.20;52.30;;;;;;6265255;28;20045;-70
2021/06/10 01:29:08;;;;;;;1.27;0.80;;;23.20;52.30;;;;;;6266059;28;20400;-70
2021/06/10 01:32:08;;;;;;;;;;;23.20;52.30;;;;;;6251711;28;20021;-70
2021/06/10 01:35:10;;;;;;;0.95;0.88;;;23.20;52.20;;;;;;6260069;28;19909;-70
2021/06/10 01:38:13;;;;;;;1.00;0.80;;;23.20;52.20;;;;;;6265410;28;20045;-70
2021/06/10 01:41:15;;;;;;;0.95;0.82;;;23.10;52.20;;;;;;6260934;28;20025;-70
2021/06/10 01:44:16;;;;;;;0.70;0.70;;;23.20;52.30;;;;;;6264928;28;20044;-70
2021/06/10 01:47:19;;;;;;;0.98;0.88;;;23.20;52.30;;;;;;6265388;28;20029;-69
2021/06/10 01:50:21;;;;;;;0.80;0.80;;;23.20;52.30;;;;;;6264851;28;20028;-69
2021/06/10 01:53:23;;;;;;;0.80;0.80;;;23.20;52.30;;;;;;6244483;28;20068;-69
2021/06/10 01:56:25;;;;;;;1.23;0.80;;;23.20;52.30;;;;;;6258502;28;20033;-69
2021/06/10 01:59:26;;;;;;;0.98;0.80;;;23.20;52.30;;;;;;6264529;28;20028;-70
2021/06/10 02:02:28;;;;;;;1.52;0.90;;;23.20;52.30;;;;;;6265117;28;20373;-70
2021/06/10 02:05:28;;;;;;;1.08;0.82;;;23.20;52.30;;;;;;6264512;28;20553;-70
2021/06/10 02:08:30;;;;;;;1.10;1.00;;;23.20;52.30;;;;;;6264810;28;20028;-70
2021/06/10 02:11:33;;;;;;;1.20;1.10;;;23.20;52.30;;;;;;6264499;28;20515;-70
2021/06/10 02:14:34;;;;;;;0.75;0.75;;;23.20;52.30;;;;;;6264482;28;20567;-69
2021/06/10 02:17:36;;;;;;;0.70;0.70;;;23.20;52.30;;;;;;6264476;28;20822;-70
2021/06/10 02:20:36;;;;;;;0.75;0.70;;;23.20;52.30;;;;;;6264775;28;20033;-70
2021/06/10 02:23:38;;;;;;;2.58;1.05;;;23.20;52.30;;;;;;6264660;28;20060;-69
2021/06/10 02:26:40;;;;;;;0.80;0.80;;;23.20;52.30;;;;;;6264218;28;20021;-69
2021/06/10 02:29:40;;;;;;;1.10;0.90;;;23.20;52.30;;;;;;6264404;28;20033;-69
2021/06/10 02:32:41;;;;;;;1.30;0.98;;;23.20;52.30;;;;;;6264234;28;20383;-70
2021/06/10 02:35:43;;;;;;;1.05;0.95;;;23.20;52.30;;;;;;6264037;28;20021;-69
2021/06/10 02:38:53;;;;;;;0.82;0.77;;;23.20;52.30;;;;;;6265223;28;20063;-69
2021/06/10 02:41:54;;;;;;;0.65;0.63;;;23.20;52.40;;;;;;6264222;28;20082;-70
2021/06/10 02:44:55;;;;;;;1.00;0.80;;;23.20;52.30;;;;;;6261883;28;20037;-69
2021/06/10 02:47:58;;;;;;;1.13;0.88;;;23.20;52.30;;;;;;6257346;28;20021;-70
2021/06/10 02:50:59;;;;;;;1.00;0.90;;;23.20;52.30;;;;;;6262173;28;20025;-70
2021/06/10 02:54:04;;;;;;;0.73;0.70;;;23.20;52.40;;;;;;6249922;28;20059;-69
2021/06/10 02:57:07;;;;;;;1.10;1.00;;;23.20;52.30;;;;;;6263649;28;20017;-69
2021/06/10 03:00:08;;;;;;;0.98;0.88;;;23.20;52.40;;;;;;6263579;28;20491;-69
2021/06/10 03:03:12;;;;;;;0.90;0.85;;;23.20;52.40;;;;;;6263976;28;20025;-69
2021/06/10 03:06:13;;;;;;;1.27;0.70;;;23.20;52.40;;;;;;6262497;28;20029;-70
2021/06/10 03:09:14;;;;;;;0.88;0.80;;;23.20;52.40;;;;;;6243909;28;20040;-69
2021/06/10 03:12:17;;;;;;;0.85;0.77;;;23.20;52.40;;;;;;6263554;28;20021;-69
2021/06/10 03:15:18;;;;;;;1.25;1.10;;;23.20;52.40;;;;;;6263655;28;20053;-70
2021/06/10 03:18:20;;;;;;;0.80;0.70;;;23.20;52.40;;;;;;6262729;28;20096;-69
2021/06/10 03:21:21;;;;;;;0.90;0.80;;;23.20;52.40;;;;;;6263324;28;20074;-70
2021/06/10 03:24:22;;;;;;;0.80;0.80;;;23.20;52.40;;;;;;6263843;28;20101;-70
2021/06/10 03:27:24;;;;;;;1.38;0.95;;;23.20;52.50;;;;;;6263327;28;20048;-70
2021/06/10 03:30:25;;;;;;;1.90;1.00;;;23.20;52.40;;;;;;6263191;28;20427;-70
2021/06/10 03:33:27;;;;;;;1.00;0.77;;;23.20;52.40;;;;;;6245497;28;20036;-70
2021/06/10 03:36:30;;;;;;;1.10;0.90;;;23.20;52.40;;;;;;6260310;28;20052;-70
2021/06/10 03:39:31;;;;;;;1.00;0.90;;;23.20;52.40;;;;;;6262710;28;20036;-70
2021/06/10 03:42:34;;;;;;;1.00;0.80;;;23.20;52.40;;;;;;6263495;28;20476;-70
2021/06/10 03:45:35;;;;;;;0.80;0.65;;;23.20;52.40;;;;;;6263146;28;20563;-69
2021/06/10 03:48:40;;;;;;;2.33;0.95;;;23.20;52.40;;;;;;6263134;28;20021;-69
2021/06/10 03:51:40;;;;;;;1.63;0.90;;;23.20;52.40;;;;;;6256750;28;20268;-70
2021/06/10 03:54:41;;;;;;;1.08;0.90;;;23.20;52.40;;;;;;6257023;28;20755;-70
2021/06/10 03:57:42;;;;;;;0.93;0.82;;;23.20;52.40;;;;;;6262979;28;20033;-69
2021/06/10 04:00:42;;;;;;;1.17;0.95;;;23.20;52.40;;;;;;6262801;28;20548;-70
2021/06/10 04:03:43;;;;;;;1.08;0.95;;;23.20;52.40;;;;;;6263444;28;20037;-70
2021/06/10 04:06:44;;;;;;;0.80;0.80;;;23.20;52.40;;;;;;6265985;28;20257;-69
2021/06/10 04:09:44;;;;;;;1.38;0.90;;;23.20;52.40;;;;;;6267517;28;20053;-70
2021/06/10 04:12:45;;;;;;;0.70;0.70;;;23.20;52.40;;;;;;6267319;28;20095;-70
2021/06/10 04:15:45;;;;;;;1.00;0.90;;;23.20;52.40;;;;;;6267517;28;20269;-70
2021/06/10 04:18:46;;;;;;;0.88;0.80;;;23.20;52.50;;;;;;6267302;28;20072;-70
2021/06/10 04:21:47;;;;;;;0.95;0.85;;;23.20;52.40;;;;;;6266940;28;20037;-70
2021/06/10 04:24:48;;;;;;;1.10;0.90;;;23.20;52.40;;;;;;6267070;28;20033;-70
2021/06/10 04:27:48;;;;;;;1.15;0.70;;;23.20;52.40;;;;;;6267349;28;20036;-70
2021/06/10 04:30:49;;;;;;;1.30;1.00;;;23.20;52.40;;;;;;6266966;28;20455;-69
2021/06/10 04:33:49;;;;;;;0.80;0.80;;;23.20;52.50;;;;;;6265724;28;20036;-69
2021/06/10 04:36:50;;;;;;;0.95;0.82;;;23.20;52.40;;;;;;6267220;28;20758;-70
2021/06/10 04:39:51;;;;;;;1.00;0.63;;;23.20;52.50;;;;;;6266696;28;20083;-70
2021/06/10 04:42:51;;;;;;;0.90;0.90;;;23.20;52.40;;;;;;6267573;28;20028;-69
2021/06/10 04:45:52;;;;;;;0.70;0.70;;;23.20;52.40;;;;;;6266909;28;20558;-69
2021/06/10 04:48:53;;;;;;;0.73;0.70;;;23.20;52.50;;;;;;6266525;28;20029;-69
2021/06/10 04:51:54;;;;;;;0.73;0.73;;;23.20;52.40;;;;;;6237435;28;20037;-69
2021/06/10 04:54:54;;;;;;;1.02;0.85;;;23.20;52.50;;;;;;6245884;28;20371;-70
2021/06/10 04:57:55;;;;;;;0.73;0.70;;;23.20;52.50;;;;;;6258034;28;20029;-69
2021/06/10 05:00:55;;;;;;;1.20;0.85;;;23.20;52.50;;;;;;6257109;28;20422;-70
2021/06/10 05:03:56;;;;;;;1.10;0.80;;;23.20;52.50;;;;;;6243664;28;20135;-70
2021/06/10 05:06:57;;;;;;;0.90;0.80;;;23.20;52.50;;;;;;6264292;28;20036;-69
2021/06/10 05:09:57;;;;;;;0.70;0.70;;;23.20;52.50;;;;;;6244674;28;20021;-70
2021/06/10 05:12:58;;;;;;;1.30;1.00;;;23.20;52.50;;;;;;6259778;28;20054;-70
2021/06/10 05:15:59;;;;;;;0.95;0.80;;;23.20;52.50;;;;;;6265372;28;20021;-70
2021/06/10 05:18:59;;;;;;;0.70;0.70;;;23.20;52.50;;;;;;6263916;28;20492;-69
2021/06/10 05:22:00;;;;;;;1.95;0.80;;;23.20;52.50;;;;;;6265118;28;20028;-69
2021/06/10 05:25:00;;;;;;;0.70;0.65;;;23.20;52.50;;;;;;6261329;28;20025;-70
2021/06/10 05:28:01;;;;;;;1.33;0.60;;;23.20;52.50;;;;;;6260040;28;20411;-70
2021/06/10 05:31:07;;;;;;;1.27;0.93;;;23.20;52.50;;;;;;6255685;28;20407;-70
2021/06/10 05:34:07;;;;;;;0.73;0.70;;;23.20;52.50;;;;;;6255065;28;20033;-70
2021/06/10 05:37:08;;;;;;;0.98;0.80;;;23.20;52.50;;;;;;6262596;28;20492;-71
2021/06/10 05:40:09;;;;;;;0.80;0.70;;;23.20;52.50;;;;;;6257645;28;20061;-71
2021/06/10 05:43:09;;;;;;;0.90;0.70;;;23.20;52.50;;;;;;6261995;28;20024;-70
2021/06/10 05:46:10;;;;;;;1.02;0.60;;;23.20;52.50;;;;;;6260452;28;20385;-69
2021/06/10 05:49:11;;;;;;;0.65;0.60;;;23.20;52.50;;;;;;6250928;28;20128;-70
2021/06/10 05:52:11;;;;;;;1.02;0.80;;;23.20;52.50;;;;;;6247911;28;20032;-70
2021/06/10 05:55:12;;;;;;;1.38;0.98;;;23.20;52.50;;;;;;6251635;28;20271;-70
2021/06/10 05:58:14;;;;;;;0.60;0.60;;;23.20;52.50;;;;;;6250003;28;20445;-70
2021/06/10 06:01:14;;;;;;;0.80;0.80;;;23.20;52.50;;;;;;6247344;28;20491;-71
2021/06/10 06:04:15;;;;;;;1.33;0.85;;;23.20;52.50;;;;;;6262300;28;20084;-70
2021/06/10 06:07:15;;;;;;;0.70;0.63;;;23.20;52.60;;;;;;6257250;28;20360;-70
2021/06/10 06:10:17;;;;;;;0.80;0.80;;;23.20;52.50;;;;;;6255110;28;20415;-70
2021/06/10 06:13:23;;;;;;;0.90;0.65;;;23.20;52.50;;;;;;6266799;28;20080;-70
2021/06/10 06:16:23;;;;;;;0.70;0.70;;;23.20;52.50;;;;;;6263139;28;20412;-70
2021/06/10 06:19:24;;;;;;;0.80;0.80;;;23.20;52.60;;;;;;6266074;28;20035;-70
2021/06/10 06:22:26;;;;;;;1.15;0.63;;;23.20;52.50;;;;;;6266005;28;20037;-70
2021/06/10 06:25:26;;;;;;;0.68;0.60;;;23.20;52.50;;;;;;6267143;28;20067;-70
2021/06/10 06:28:27;;;;;;;1.05;0.70;;;23.20;52.50;;;;;;6266301;28;20024;-70
2021/06/10 06:31:29;;;;;;;1.05;0.90;;;23.20;52.60;;;;;;6254895;28;20040;-70
2021/06/10 06:34:29;;;;;;;0.77;0.70;;;23.20;52.60;;;;;;6266017;28;20055;-70
2021/06/10 06:37:30;;;;;;;1.00;0.70;;;23.20;52.60;;;;;;6265945;28;20021;-70
2021/06/10 06:40:31;;;;;;;0.70;0.60;;;23.20;52.50;;;;;;6265692;28;20100;-70
2021/06/10 06:43:31;;;;;;;0.80;0.70;;;23.20;52.60;;;;;;6263943;28;20529;-70
2021/06/10 06:46:33;;;;;;;0.80;0.80;;;23.20;52.50;;;;;;6258425;28;20029;-70
2021/06/10 06:49:34;;;;;;;1.02;0.80;;;23.20;52.60;;;;;;6265093;28;20025;-70
2021/06/10 06:52:34;;;;;;;0.70;0.70;;;23.20;52.60;;;;;;6258135;28;20049;-70
2021/06/10 06:55:35;;;;;;;0.85;0.70;;;23.20;52.60;;;;;;6259304;28;20051;-70
2021/06/10 06:58:35;;;;;;;1.20;0.80;;;23.20;52.60;;;;;;6265744;28;20364;-70
2021/06/10 07:01:36;;;;;;;0.90;0.80;;;23.20;52.60;;;;;;6264448;28;20074;-70
2021/06/10 07:04:36;;;;;;;0.80;0.70;;;23.20;52.60;;;;;;6264782;28;20041;-70
2021/06/10 07:07:37;;;;;;;1.10;1.00;;;23.20;52.60;;;;;;6260474;28;20064;-70
2021/06/10 07:10:38;;;;;;;0.68;0.68;;;23.20;52.60;;;;;;6265487;28;20022;-70
2021/06/10 07:13:38;;;;;;;0.80;0.80;;;23.20;52.60;;;;;;6265461;28;20057;-70
2021/06/10 07:16:41;;;;;;;0.80;0.70;;;23.20;52.50;;;;;;6265643;28;20072;-70
2021/06/10 07:19:41;;;;;;;0.77;0.68;;;23.30;52.60;;;;;;6261158;28;20036;-70
2021/06/10 07:22:42;;;;;;;1.75;0.68;;;23.30;53.20;;;;;;6262399;28;20084;-70
2021/06/10 07:25:42;;;;;;;0.60;0.60;;;23.30;52.50;;;;;;6264950;28;20656;-70
2021/06/10 07:28:43;;;;;;;2.50;0.80;;;23.30;52.60;;;;;;6248205;28;20040;-69
2021/06/10 07:31:44;;;;;;;1.15;0.52;;;23.30;52.60;;;;;;6248809;28;20357;-70
2021/06/10 07:34:44;;;;;;;4.10;0.63;;;23.30;52.50;;;;;;6247393;28;20025;-70
2021/06/10 07:37:45;;;;;;;1.33;0.80;;;23.30;52.60;;;;;;6249864;28;20061;-70
2021/06/10 07:40:45;;;;;;;1.10;0.70;;;23.30;52.60;;;;;;6266470;28;20025;-70
2021/06/10 07:43:46;;;;;;;1.05;0.80;;;23.30;52.60;;;;;;6260462;28;20064;-70
2021/06/10 07:46:46;;;;;;;0.60;0.60;;;23.30;52.70;;;;;;6254873;28;20025;-70
2021/06/10 07:49:47;;;;;;;0.60;0.60;;;23.30;52.60;;;;;;6270550;28;20060;-70
2021/06/10 07:52:47;;;;;;;0.90;0.65;;;23.30;52.60;;;;;;6259883;28;20026;-70
2021/06/10 07:55:54;;;;;;;0.80;0.80;;;23.20;52.60;;;;;;6270137;28;20115;-71
2021/06/10 07:58:54;;;;;;;0.60;0.52;;;23.20;52.60;;;;;;6269332;28;20079;-70
2021/06/10 08:01:55;;;;;;;0.70;0.60;;;23.20;52.60;;;;;;6269575;28;20036;-70
2021/06/10 08:04:56;;;;;;;1.10;0.80;;;23.20;52.60;;;;;;6253179;28;20111;-71
2021/06/10 08:07:57;;;;;;;0.60;0.55;;;23.20;52.60;;;;;;6253812;28;20083;-70
2021/06/10 08:11:03;;;;;;;0.88;0.63;;;23.20;52.60;;;;;;6261728;28;20415;-70
2021/06/10 08:14:04;;;;;;;0.70;0.70;;;23.20;52.60;;;;;;6268605;28;20681;-70
2021/06/10 08:17:05;;;;;;;1.17;0.75;;;23.20;52.60;;;;;;6268556;28;20029;-70
2021/06/10 08:20:08;;;;;;;0.73;0.70;;;23.20;52.60;;;;;;6269007;28;20551;-70
2021/06/10 08:23:08;;;;;;;0.80;0.80;;;23.20;52.60;;;;;;6268865;28;20039;-70
2021/06/10 08:26:09;;;;;;;0.75;0.70;;;23.20;52.60;;;;;;6258721;28;20049;-70
2021/06/10 08:29:11;;;;;;;0.80;0.65;;;23.20;52.60;;;;;;6267027;28;20052;-70
2021/06/10 08:32:11;;;;;;;0.77;0.70;;;23.20;52.60;;;;;;6268381;28;20040;-70
2021/06/10 08:35:12;;;;;;;0.55;0.55;;;23.20;52.60;;;;;;6269157;28;20029;-70
2021/06/10 08:38:13;;;;;;;0.60;0.60;;;23.20;52.60;;;;;;6251679;28;20437;-71
2021/06/10 08:41:14;;;;;;;0.90;0.70;;;23.20;52.60;;;;;;6251054;28;20158;-70
2021/06/10 08:44:15;;;;;;;1.10;0.75;;;23.20;52.60;;;;;;6264815;28;20111;-70
2021/06/10 08:47:20;;;;;;;0.52;0.52;;;23.20;52.60;;;;;;6258867;28;20048;-70
2021/06/10 08:50:24;;;;;;;0.82;0.70;;;23.20;52.60;;;;;;6257392;28;20479;-70
2021/06/10 08:53:25;;;;;;;0.70;0.70;;;23.20;52.60;;;;;;6263494;28;20029;-69
2021/06/10 08:56:27;;;;;;;0.70;0.60;;;23.20;52.70;;;;;;6264807;28;20555;-69
2021/06/10 08:59:29;;;;;;;1.55;0.60;;;23.20;52.70;;;;;;6256623;28;20029;-70
2021/06/10 09:02:29;;;;;;;0.82;0.75;;;23.20;52.70;;;;;;6266749;28;20029;-70
2021/06/10 09:05:30;;;;;;;1.98;0.98;;;23.20;52.60;;;;;;6262482;28;20032;-70
2021/06/10 09:08:31;;;;;;;0.93;0.70;;;23.20;52.70;;;;;;6254515;28;20021;-70
2021/06/10 09:11:38;;;;;;;5.82;0.68;;;23.20;52.70;;;;;;6266273;28;20355;-70
2021/06/10 09:15:00;;;;;;;0.80;0.77;;;23.20;52.60;;;;;;6263797;28;20061;-70
2021/06/10 09:18:02;;;;;;;1.17;0.80;;;23.20;52.60;;;;;;6258182;28;20056;-70
2021/06/10 09:21:03;;;;;;;1.08;0.85;;;23.20;52.60;;;;;;6259066;28;20032;-70
2021/06/10 09:24:29;;;;;;;1.02;0.80;;;23.20;52.60;;;;;;6266683;28;20512;-70
2021/06/10 09:27:29;;;;;;;1.90;1.25;;;23.20;52.70;;;;;;6266093;28;20017;-70
2021/06/10 09:30:43;;;;;;;1.63;0.90;;;23.20;52.70;;;;;;6254958;28;20017;-70
2021/06/10 09:33:44;;;;;;;1.42;0.90;;;23.20;52.70;;;;;;6257154;28;20139;-70
2021/06/10 09:36:47;;;;;;;1.02;0.70;;;23.20;52.70;;;;;;6263113;28;20029;-71
2021/06/10 09:39:51;;;;;;;1.25;0.93;;;23.20;52.70;;;;;;6250735;28;20071;-70
2021/06/10 09:42:51;;;;;;;1.42;0.85;;;23.20;52.70;;;;;;6263310;28;20112;-70
2021/06/10 09:45:53;;;;;;;1.70;0.93;;;23.20;52.70;;;;;;6263383;28;20064;-70
2021/06/10 09:49:05;;;;;;;1.65;1.00;;;23.20;52.70;;;;;;6258288;28;20024;-70
2021/06/10 09:52:06;;;;;;;2.28;1.20;;;23.20;52.70;;;;;;6247395;28;20622;-70
2021/06/10 09:55:07;;;;;;;3.72;1.05;;;23.20;52.70;;;;;;6255430;28;20334;-70
2021/06/10 09:58:13;;;;;;;2.42;1.25;;;23.20;52.70;;;;;;6265373;28;20037;-70
2021/06/10 10:01:20;;;;;;;1.23;0.80;;;23.20;52.70;;;;;;6257416;28;20026;-70
2021/06/10 10:04:21;;;;;;;1.40;0.95;;;23.20;52.70;;;;;;6233228;28;20041;-70
2021/06/10 10:07:25;;;;;;;1.73;0.93;;;23.20;52.70;;;;;;6250598;28;20618;-70
2021/06/10 10:10:25;;;;;;;1.70;1.13;;;23.20;52.70;;;;;;6264264;28;20082;-70
2021/06/10 10:13:28;;;;;;;1.80;1.00;;;23.20;52.80;;;;;;6264556;28;20057;-70
2021/06/10 10:16:31;;;;;;;1.40;1.05;;;23.20;52.80;;;;;;6262389;28;20118;-70
2021/06/10 10:19:32;;;;;;;1.75;1.25;;;23.20;52.70;;;;;;6260634;28;20468;-70
2021/06/10 10:22:35;;;;;;;2.53;1.38;;;23.20;52.70;;;;;;6254396;28;20028;-70
2021/06/10 10:25:36;;;;;;;1.77;1.00;;;23.20;52.70;;;;;;6265237;28;20108;-70
2021/06/10 10:28:37;;;;;;;2.63;1.20;;;23.20;52.70;;;;;;6260816;28;20357;-70
2021/06/10 10:31:40;;;;;;;3.30;1.52;;;23.20;52.70;;;;;;6258936;28;20032;-70
2021/06/10 10:34:41;;;;;;;2.00;1.10;;;23.20;52.70;;;;;;6264512;28;20025;-70
2021/06/10 10:37:41;;;;;;;1.85;1.25;;;23.20;52.80;;;;;;6261575;28;20165;-70
2021/06/10 10:40:52;;;;;;;2.88;1.20;;;23.20;52.80;;;;;;6264377;28;20113;-72
2021/06/10 10:44:08;;;;;;;1.83;1.00;;;23.20;52.70;;;;;;6253199;28;20020;-70
2021/06/10 10:47:10;;;;;;;3.65;1.50;;;23.20;52.80;;;;;;6254521;28;20067;-70
2021/06/10 10:50:17;;;;;;;1.77;1.20;;;23.20;52.70;;;;;;6264093;28;20025;-69
2021/06/10 10:53:22;;;;;;;1.75;1.17;;;23.20;52.70;;;;;;6246357;28;20081;-70
2021/06/10 10:56:39;;;;;;;2.72;1.40;;;23.20;52.80;;;;;;6254859;28;20021;-70
2021/06/10 10:59:46;;;;;;;3.17;1.42;;;23.20;52.70;;;;;;6255461;28;20071;-70
2021/06/10 11:03:13;;;;;;;2.72;1.38;;;23.20;52.80;;;;;;6243414;28;20117;-70
2021/06/10 11:06:20;;;;;;;2.47;1.23;;;23.20;52.70;;;;;;6224760;28;20059;-70
2021/06/10 11:09:24;;;;;;;2.65;1.60;;;23.20;52.70;;;;;;6250301;28;20094;-70
2021/06/10 11:12:49;;;;;;;3.35;1.48;;;23.20;52.70;;;;;;6260184;28;20502;-70
2021/06/10 11:15:51;;;;;;;3.07;1.50;;;23.20;52.80;;;;;;6263751;28;20032;-71
2021/06/10 11:18:52;;;;;;;3.42;1.92;;;23.20;52.80;;;;;;6259022;28;20091;-70
2021/06/10 11:21:53;;;;;;;3.50;1.92;;;23.20;52.80;;;;;;6248988;28;20040;-70
2021/06/10 11:24:53;;;;;;;4.03;2.05;;;23.20;52.80;;;;;;6260586;28;20037;-71
2021/06/10 11:28:06;;;;;;;4.85;2.30;;;23.20;52.80;;;;;;6243813;28;20021;-71
2021/06/10 11:31:17;;;;;;;5.78;2.47;;;23.20;53.00;;;;;;6255618;28;20104;-70
2021/06/10 11:34:31;;;;;;;5.18;2.70;;;23.20;52.90;;;;;;6258683;28;20065;-70
2021/06/10 11:37:33;;;;;;;4.78;2.38;;;23.30;53.70;;;;;;6240655;28;20360;-70
2021/06/10 11:40:34;;;;;;;5.72;2.58;;;23.20;52.90;;;;;;6263528;28;20507;-70
2021/06/10 11:43:37;;;;;;;3.58;2.00;;;23.20;52.90;;;;;;6256929;28;20061;-70
2021/06/10 11:46:42;;;;;;;3.85;2.15;;;23.20;52.90;;;;;;6251278;28;20049;-70
2021/06/10 11:49:42;;;;;;;;;;;23.20;52.90;;;;;;6243925;28;20120;-70
2021/06/10 11:53:17;;;;;;;3.35;1.92;;;23.20;52.90;;;;;;6251510;28;19909;-70
2021/06/10 11:56:28;;;;;;;3.28;1.80;;;23.20;52.90;;;;;;6254795;28;20399;-70
2021/06/10 11:59:29;;;;;;;4.80;2.33;;;23.20;52.90;;;;;;6254037;28;20033;-69
2021/06/10 12:02:30;;;;;;;3.17;1.70;;;23.20;52.90;;;;;;6262124;28;20033;-70
2021/06/10 12:05:33;;;;;;;3.42;1.73;;;23.20;52.90;;;;;;6244997;28;20029;-70
2021/06/10 12:08:35;;;;;;;4.50;2.00;;;23.20;52.80;;;;;;6252505;28;20426;-70
2021/06/10 12:11:35;;;;;;;3.67;1.92;;;23.20;52.90;;;;;;6250015;28;20025;-70
2021/06/10 12:14:38;;;;;;;2.95;1.92;;;23.20;52.80;;;;;;6252695;28;20056;-70
2021/06/10 12:17:51;;;;;;;4.57;2.28;;;23.20;52.80;;;;;;6255543;28;20023;-70
2021/06/10 12:20:59;;;;;;;3.47;1.83;;;23.20;52.80;;;;;;6257262;28;20025;-70
2021/06/10 12:24:01;;;;;;;3.58;2.10;;;23.20;52.80;;;;;;6259081;28;20033;-69
2021/06/10 12:27:17;;;;;;;2.72;1.70;;;23.20;53.60;;;;;;6264297;28;20427;-70
2021/06/10 12:30:21;;;;;;;3.60;1.90;;;23.20;52.90;;;;;;6267890;28;20029;-70
2021/06/10 12:33:22;;;;;;;3.50;1.90;;;23.20;52.80;;;;;;6259012;28;20029;-70
2021/06/10 12:36:30;;;;;;;5.22;2.33;;;23.20;52.90;;;;;;6262459;28;20029;-70
2021/06/10 12:39:31;;;;;;;4.45;2.30;;;23.20;52.90;;;;;;6266667;28;20037;-69
2021/06/10 12:42:32;;;;;;;2.50;1.70;;;23.20;52.90;;;;;;6267029;28;20032;-69
2021/06/10 12:45:33;;;;;;;5.00;2.40;;;23.20;52.80;;;;;;6261467;28;20384;-69
2021/06/10 12:48:35;;;;;;;4.05;2.20;;;23.20;52.90;;;;;;6243468;28;20120;-70
2021/06/10 12:51:45;;;;;;;3.45;1.73;;;23.20;52.90;;;;;;6262229;28;20086;-70
2021/06/10 12:54:48;;;;;;;4.55;2.00;;;23.20;52.90;;;;;;6257395;28;20056;-70
2021/06/10 12:57:56;;;;;;;3.55;1.80;;;23.20;52.80;;;;;;6267111;28;20295;-69
2021/06/10 13:01:08;;;;;;;2.28;1.67;;;23.20;52.80;;;;;;6257579;28;20048;-70
2021/06/10 13:04:08;;;;;;;2.85;1.70;;;23.20;52.80;;;;;;6259300;28;20029;-69
2021/06/10 13:07:26;;;;;;;2.63;1.67;;;23.20;52.80;;;;;;6230698;28;20186;-70
2021/06/10 13:10:40;;;;;;;2.45;1.65;;;23.30;52.90;;;;;;6259819;28;20044;-70
2021/06/10 13:13:41;;;;;;;3.20;1.80;;;23.20;52.90;;;;;;6258431;28;20052;-70
2021/06/10 13:16:53;;;;;;;2.92;1.70;;;23.20;52.80;;;;;;6259927;28;20269;-69
2021/06/10 13:19:54;;;;;;;3.65;1.80;;;23.20;52.80;;;;;;6253820;28;20512;-70
2021/06/10 13:23:00;;;;;;;4.07;1.88;;;23.20;52.90;;;;;;6261466;28;20032;-69
2021/06/10 13:26:06;;;;;;;2.80;1.70;;;23.20;52.80;;;;;;6249460;28;20446;-69
2021/06/10 13:29:13;;;;;;;3.00;1.73;;;23.20;52.90;;;;;;6265279;28;20479;-69
2021/06/10 13:32:33;;;;;;;2.72;1.83;;;23.20;52.90;;;;;;6259415;28;20465;-70
2021/06/10 13:35:42;;;;;;;2.80;1.60;;;23.20;53.60;;;;;;6249173;28;20025;-69
2021/06/10 13:38:44;;;;;;;2.17;1.55;;;23.20;52.90;;;;;;6259686;28;20051;-70
2021/06/10 13:41:47;;;;;;;2.28;1.45;;;23.20;52.90;;;;;;6259099;28;20029;-70
2021/06/10 13:44:48;;;;;;;3.38;1.98;;;23.20;53.30;;;;;;6262712;28;20321;-70
2021/06/10 13:47:49;;;;;;;2.55;1.73;;;23.20;52.90;;;;;;6247871;28;20043;-70
2021/06/10 13:50:49;;;;;;;2.30;1.40;;;23.20;52.90;;;;;;6260682;28;20535;-70
2021/06/10 13:53:50;;;;;;;3.40;1.83;;;23.20;52.90;;;;;;6257970;28;20431;-70
2021/06/10 13:56:50;;;;;;;2.47;1.50;;;23.20;52.90;;;;;;6252160;28;20091;-69
2021/06/10 13:59:53;;;;;;;1.95;1.20;;;23.20;52.90;;;;;;6264894;28;20504;-70
2021/06/10 14:02:53;;;;;;;1.77;1.20;;;23.20;52.90;;;;;;6255693;28;20031;-70
2021/06/10 14:05:54;;;;;;;4.40;1.80;;;23.20;52.80;;;;;;6265038;28;20037;-70
2021/06/10 14:08:56;;;;;;;4.15;1.63;;;23.30;53.00;;;;;;6264478;28;20117;-70
2021/06/10 14:11:56;;;;;;;3.67;1.65;;;23.20;52.90;;;;;;6255916;28;20503;-70
2021/06/10 14:14:57;;;;;;;2.40;1.40;;;23.20;52.90;;;;;;6260114;28;20053;-70
2021/06/10 14:17:57;;;;;;;2.72;1.20;;;23.20;52.90;;;;;;6257648;28;20666;-70
2021/06/10 14:20:58;;;;;;;2.30;1.60;;;23.20;52.90;;;;;;6264116;28;20025;-70
2021/06/10 14:23:59;;;;;;;2.42;1.50;;;23.20;52.90;;;;;;6263895;28;20056;-70
2021/06/10 14:26:59;;;;;;;2.40;1.45;;;23.20;52.90;;;;;;6253118;28;20044;-70
2021/06/10 14:30:12;;;;;;;2.10;1.38;;;23.20;52.90;;;;;;6263801;28;20029;-70
2021/06/10 14:33:13;;;;;;;2.17;1.35;;;23.20;52.80;;;;;;6257386;28;20130;-70
2021/06/10 14:36:14;;;;;;;2.15;1.40;;;23.20;52.80;;;;;;6264051;28;20392;-70
2021/06/10 14:39:14;;;;;;;2.15;1.30;;;23.20;52.90;;;;;;6259238;28;20506;-70
2021/06/10 14:42:15;;;;;;;2.58;1.52;;;23.20;52.90;;;;;;6257637;28;20033;-70
2021/06/10 14:45:16;;;;;;;2.20;1.55;;;23.20;52.90;;;;;;6257572;28;20036;-70
2021/06/10 14:48:16;;;;;;;2.88;1.70;;;23.20;52.90;;;;;;6238801;28;20112;-70
2021/06/10 14:51:17;;;;;;;2.47;1.70;;;23.20;52.90;;;;;;6240162;28;20341;-70
2021/06/10 14:54:18;;;;;;;2.47;1.38;;;23.20;52.90;;;;;;6233878;28;20574;-70
2021/06/10 14:57:18;;;;;;;2.13;1.30;;;23.20;52.90;;;;;;6248036;28;20026;-69
2021/06/10 15:00:19;;;;;;;2.78;1.67;;;23.20;52.90;;;;;;6251573;28;20025;-69
2021/06/10 15:03:20;;;;;;;2.15;1.40;;;23.20;52.90;;;;;;6225883;28;20072;-70
2021/06/10 15:06:21;;;;;;;1.98;1.45;;;23.20;52.90;;;;;;6239704;28;20037;-70
2021/06/10 15:09:21;;;;;;;2.05;1.42;;;23.20;52.90;;;;;;6262756;28;20023;-70
2021/06/10 15:12:24;;;;;;;1.58;1.30;;;23.20;52.90;;;;;;6264321;28;20025;-70
2021/06/10 15:15:25;;;;;;;2.13;1.40;;;23.20;52.90;;;;;;6261616;28;20567;-70
2021/06/10 15:18:26;;;;;;;2.13;1.70;;;23.20;53.00;;;;;;6248903;28;20029;-70
2021/06/10 15:21:26;;;;;;;2.58;1.55;;;23.20;52.90;;;;;;6263644;28;20507;-70
2021/06/10 15:24:27;;;;;;;1.80;1.20;;;23.20;52.90;;;;;;6256338;28;20040;-70
2021/06/10 15:27:27;;;;;;;1.80;1.42;;;23.20;52.90;;;;;;6254907;28;20040;-70
2021/06/10 15:30:28;;;;;;;1.92;1.17;;;23.20;52.90;;;;;;6262486;28;20028;-70
2021/06/10 15:33:28;;;;;;;1.48;1.15;;;23.20;52.90;;;;;;6255857;28;20096;-70
2021/06/10 15:36:29;;;;;;;1.77;1.33;;;23.20;52.90;;;;;;6263456;28;20029;-70
2021/06/10 15:39:30;;;;;;;1.65;1.15;;;23.20;52.90;;;;;;6251072;28;20072;-70
2021/06/10 15:42:30;;;;;;;2.45;1.80;;;23.20;52.90;;;;;;6258757;28;20311;-70
2021/06/10 15:45:33;;;;;;;2.45;1.40;;;23.20;52.90;;;;;;6261301;28;20072;-70
2021/06/10 15:48:35;;;;;;;1.75;1.40;;;23.20;52.90;;;;;;6223215;28;20094;-70
2021/06/10 15:51:36;;;;;;;2.08;1.50;;;23.20;52.90;;;;;;6252082;28;20036;-70
2021/06/10 15:54:36;;;;;;;1.50;1.30;;;23.20;53.00;;;;;;6244439;28;20071;-70